Time;durP1;ratioP1;P1;durP2;ratioP2;P2;SDS_P1;SDS_P2;PMS_P1;PMS_P2;Temp;Humidity;BMP_temperature;BMP_pressure;BME280_temperature;BME280_humidity;BME280_pressure;Samples;Min_cycle;Max_cycle;Signal;HPM_P1;HPM_P2
2021/11/05 00:01:43;;;;;;;6.43;4.35;;;;;;;;;;4996249;28;20026;-75
2021/11/05 00:04:10;;;;;;;7.13;4.68;;;;;;;;;;4997341;28;20406;-75
2021/11/05 00:06:36;;;;;;;6.90;4.10;;;;;;;;;;4995389;28;20050;-75
2021/11/05 00:09:02;;;;;;;6.05;4.32;;;;;;;;;;4996075;28;20442;-75
2021/11/05 00:11:28;;;;;;;7.10;4.50;;;;;;;;;;4995748;28;20494;-75
2021/11/05 00:13:54;;;;;;;5.60;4.60;;;;;;;;;;4997023;28;20039;-75
2021/11/05 00:16:20;;;;;;;6.72;4.70;;;;;;;;;;5011163;28;20061;-75
2021/11/05 00:18:49;;;;;;;8.75;4.78;;;;;;;;;;5015548;28;20454;-75
2021/11/05 00:21:15;;;;;;;7.97;5.20;;;;;;;;;;5015362;28;20030;-75
2021/11/05 00:23:41;;;;;;;6.30;4.65;;;;;;;;;;5002351;28;20034;-76
2021/11/05 00:26:07;;;;;;;5.35;4.47;;;;;;;;;;5011263;28;20053;-75
2021/11/05 00:28:33;;;;;;;6.68;4.72;;;;;;;;;;5015351;28;20111;-75
2021/11/05 00:30:58;;;;;;;5.65;4.20;;;;;;;;;;5015006;28;20072;-76
2021/11/05 00:33:24;;;;;;;8.90;4.63;;;;;;;;;;5010626;28;20025;-75
2021/11/05 00:35:50;;;;;;;6.72;5.40;;;;;;;;;;5009221;28;20514;-75
2021/11/05 00:38:17;;;;;;;5.57;4.28;;;;;;;;;;5015177;28;20041;-75
2021/11/05 00:40:43;;;;;;;7.63;4.88;;;;;;;;;;5015070;28;20518;-75
2021/11/05 00:43:09;;;;;;;7.03;5.07;;;;;;;;;;5014155;28;20069;-75
2021/11/05 00:45:35;;;;;;;8.43;5.20;;;;;;;;;;5004702;28;20029;-75
2021/11/05 00:48:01;;;;;;;7.55;5.13;;;;;;;;;;5015052;28;20478;-75
2021/11/05 00:50:27;;;;;;;7.50;4.80;;;;;;;;;;5014820;28;20026;-75
2021/11/05 00:52:53;;;;;;;7.07;4.85;;;;;;;;;;5010616;28;20538;-75
2021/11/05 00:55:19;;;;;;;7.32;4.63;;;;;;;;;;5004634;28;20045;-75
2021/11/05 00:57:45;;;;;;;8.10;4.82;;;;;;;;;;4995006;28;20034;-75
2021/11/05 01:00:13;;;;;;;5.82;4.55;;;;;;;;;;4995168;28;20109;-75
2021/11/05 01:02:39;;;;;;;7.32;4.85;;;;;;;;;;4994904;28;20042;-75
2021/11/05 01:05:05;;;;;;;7.03;5.18;;;;;;;;;;5003331;28;20053;-76
2021/11/05 01:07:31;;;;;;;7.13;5.07;;;;;;;;;;5014592;28;20026;-75
2021/11/05 01:09:57;;;;;;;6.13;4.95;;;;;;;;;;5013969;28;20101;-75
2021/11/05 01:12:23;;;;;;;6.40;4.72;;;;;;;;;;5014776;28;20509;-75
2021/11/05 01:14:50;;;;;;;6.88;4.63;;;;;;;;;;5010785;28;20494;-75
2021/11/05 01:17:16;;;;;;;5.88;4.97;;;;;;;;;;5012460;28;20037;-74
2021/11/05 01:19:43;;;;;;;8.05;4.60;;;;;;;;;;5013942;28;20037;-75
2021/11/05 01:22:10;;;;;;;6.55;4.53;;;;;;;;;;5013635;28;20056;-75
2021/11/05 01:24:36;;;;;;;5.20;4.03;;;;;;;;;;4998032;28;20112;-76
2021/11/05 01:27:02;;;;;;;5.90;4.63;;;;;;;;;;5013873;28;20109;-75
2021/11/05 01:29:28;;;;;;;6.80;4.75;;;;;;;;;;5014235;28;20053;-75
2021/11/05 01:31:54;;;;;;;6.38;4.60;;;;;;;;;;5014218;28;20022;-75
2021/11/05 01:34:20;;;;;;;6.85;4.43;;;;;;;;;;5007768;28;20567;-75
2021/11/05 01:36:47;;;;;;;6.97;4.68;;;;;;;;;;4974986;28;20089;-75
2021/11/05 01:39:13;;;;;;;6.78;4.13;;;;;;;;;;4975060;28;20483;-75
2021/11/05 01:41:40;;;;;;;5.60;3.97;;;;;;;;;;4974785;28;20038;-75
2021/11/05 01:44:06;;;;;;;5.82;4.55;;;;;;;;;;4978212;28;20035;-75
2021/11/05 01:46:32;;;;;;;6.63;4.80;;;;;;;;;;4993640;28;20101;-75
2021/11/05 01:48:58;;;;;;;8.98;4.97;;;;;;;;;;4994196;28;20084;-75
2021/11/05 01:51:24;;;;;;;7.30;5.03;;;;;;;;;;4994236;28;20022;-75
2021/11/05 01:53:50;;;;;;;7.93;4.85;;;;;;;;;;4994157;28;20487;-75
2021/11/05 01:58:43;;;;;;;7.38;5.20;;;;;;;;;;5066224;22;20464;-76
2021/11/05 02:01:09;;;;;;;7.38;4.55;;;;;;;;;;5051417;28;20029;-76
2021/11/05 02:03:36;;;;;;;5.00;4.18;;;;;;;;;;5052442;28;20037;-76
2021/11/05 02:06:02;;;;;;;7.68;4.35;;;;;;;;;;5050115;28;20025;-76
2021/11/05 02:08:29;;;;;;;6.38;4.38;;;;;;;;;;5070481;28;20025;-76
2021/11/05 02:10:55;;;;;;;5.88;4.60;;;;;;;;;;5072330;28;20025;-76
2021/11/05 02:13:22;;;;;;;6.45;4.50;;;;;;;;;;5067686;28;20030;-76
2021/11/05 02:15:49;;;;;;;8.48;4.47;;;;;;;;;;5066387;28;20031;-76
2021/11/05 02:18:15;;;;;;;7.05;4.70;;;;;;;;;;5072388;28;20050;-76
2021/11/05 02:20:42;;;;;;;6.22;4.72;;;;;;;;;;5072364;28;20543;-76
2021/11/05 02:23:08;;;;;;;8.18;4.85;;;;;;;;;;5071044;28;20376;-76
2021/11/05 02:25:34;;;;;;;7.03;4.88;;;;;;;;;;5064621;28;20111;-76
2021/11/05 02:28:01;;;;;;;6.43;4.50;;;;;;;;;;5072342;28;20028;-76
2021/11/05 02:30:27;;;;;;;9.00;5.07;;;;;;;;;;5071010;28;20040;-76
2021/11/05 02:32:53;;;;;;;6.07;5.00;;;;;;;;;;5070506;28;20472;-76
2021/11/05 02:35:19;;;;;;;8.02;5.30;;;;;;;;;;5057319;28;20041;-76
2021/11/05 02:37:46;;;;;;;7.95;5.32;;;;;;;;;;5051910;28;20025;-76
2021/11/05 02:40:13;;;;;;;7.22;5.18;;;;;;;;;;5052021;28;20036;-76
2021/11/05 02:42:39;;;;;;;6.28;4.63;;;;;;;;;;5052103;28;20073;-76
2021/11/05 02:45:06;;;;;;;6.47;4.90;;;;;;;;;;5055833;28;20025;-76
2021/11/05 02:47:32;;;;;;;6.20;4.40;;;;;;;;;;5051834;28;20033;-76
2021/11/05 02:50:01;;;;;;;5.50;4.03;;;;;;;;;;5051927;28;20021;-76
2021/11/05 02:52:27;;;;;;;5.47;4.43;;;;;;;;;;5054820;28;20028;-76
2021/11/05 02:54:53;;;;;;;4.88;4.03;;;;;;;;;;5069476;28;20055;-76
2021/11/05 02:57:19;;;;;;;5.43;4.43;;;;;;;;;;5071326;28;20089;-76
2021/11/05 02:59:45;;;;;;;7.20;4.40;;;;;;;;;;5071649;28;20097;-76
2021/11/05 03:02:11;;;;;;;8.68;4.00;;;;;;;;;;5071593;28;20107;-76
2021/11/05 03:04:38;;;;;;;4.95;3.70;;;;;;;;;;5061495;28;20123;-76
2021/11/05 03:07:05;;;;;;;7.45;3.95;;;;;;;;;;5071425;28;20071;-76
2021/11/05 03:09:33;;;;;;;4.63;3.80;;;;;;;;;;5071627;28;20028;-76
2021/11/05 03:11:59;;;;;;;6.93;3.90;;;;;;;;;;5071293;28;20028;-76
2021/11/05 03:14:26;;;;;;;4.93;3.90;;;;;;;;;;5069354;28;20033;-76
2021/11/05 03:16:52;;;;;;;5.72;3.75;;;;;;;;;;5071487;28;20032;-76
2021/11/05 03:19:18;;;;;;;4.28;3.30;;;;;;;;;;5054946;28;20433;-76
2021/11/05 03:21:44;;;;;;;5.00;3.70;;;;;;;;;;5051455;28;20025;-76
2021/11/05 03:24:10;;;;;;;6.22;3.85;;;;;;;;;;5068124;28;20047;-76
2021/11/05 03:26:36;;;;;;;6.85;3.70;;;;;;;;;;5049431;28;20025;-76
2021/11/05 03:29:02;;;;;;;5.63;3.45;;;;;;;;;;5051348;28;20485;-76
2021/11/05 03:31:28;;;;;;;4.03;3.08;;;;;;;;;;5057105;28;20027;-76
2021/11/05 03:33:55;;;;;;;4.63;3.58;;;;;;;;;;5069589;28;20036;-76
2021/11/05 03:36:21;;;;;;;4.97;3.55;;;;;;;;;;5050653;28;20056;-76
2021/11/05 03:38:48;;;;;;;6.80;4.15;;;;;;;;;;5051171;28;20438;-76
2021/11/05 03:41:14;;;;;;;4.22;3.20;;;;;;;;;;5051132;28;20037;-76
2021/11/05 03:43:40;;;;;;;4.55;3.42;;;;;;;;;;5052129;28;20385;-76
2021/11/05 03:46:06;;;;;;;9.75;4.53;;;;;;;;;;5059252;28;20099;-76
2021/11/05 03:48:35;;;;;;;5.15;3.70;;;;;;;;;;5051278;28;20061;-76
2021/11/05 03:51:02;;;;;;;5.10;3.17;;;;;;;;;;5051218;28;20538;-76
2021/11/05 03:53:28;;;;;;;4.35;3.40;;;;;;;;;;5063997;28;20123;-76
2021/11/05 03:55:54;;;;;;;5.07;3.70;;;;;;;;;;5054823;28;20021;-76
2021/11/05 03:58:20;;;;;;;4.70;3.38;;;;;;;;;;5049802;28;20037;-76
2021/11/05 04:00:46;;;;;;;5.10;3.60;;;;;;;;;;5051135;28;20098;-76
2021/11/05 04:03:12;;;;;;;3.90;3.50;;;;;;;;;;5069419;28;20044;-76
2021/11/05 04:05:38;;;;;;;4.68;3.45;;;;;;;;;;5068200;28;20048;-76
2021/11/05 04:08:04;;;;;;;6.18;4.05;;;;;;;;;;5071047;28;20103;-76
2021/11/05 04:10:30;;;;;;;6.80;3.88;;;;;;;;;;5070325;28;20487;-77
2021/11/05 04:12:58;;;;;;;4.88;3.75;;;;;;;;;;5071018;28;20021;-77
2021/11/05 04:15:24;;;;;;;7.40;4.03;;;;;;;;;;5054136;28;20116;-76
2021/11/05 04:17:49;;;;;;;5.32;4.18;;;;;;;;;;5050908;28;20069;-76
2021/11/05 04:20:15;;;;;;;6.47;4.32;;;;;;;;;;5050894;28;20040;-76
2021/11/05 04:22:42;;;;;;;5.78;4.40;;;;;;;;;;5055592;28;20040;-76
2021/11/05 04:25:08;;;;;;;5.78;4.70;;;;;;;;;;5064404;28;20056;-77
2021/11/05 04:27:34;;;;;;;8.65;4.53;;;;;;;;;;5070361;28;20093;-77
2021/11/05 04:30:00;;;;;;;9.13;5.03;;;;;;;;;;5070860;28;20032;-77
2021/11/05 04:32:26;;;;;;;5.68;4.50;;;;;;;;;;5071129;28;20061;-75
2021/11/05 04:34:52;;;;;;;5.60;4.43;;;;;;;;;;5067103;28;20075;-77
2021/11/05 04:37:18;;;;;;;5.95;4.43;;;;;;;;;;5069512;28;20029;-74
2021/11/05 04:39:44;;;;;;;6.63;4.10;;;;;;;;;;5070971;28;20398;-77
2021/11/05 04:42:10;;;;;;;6.90;4.32;;;;;;;;;;5067257;28;20082;-75
2021/11/05 04:44:36;;;;;;;6.05;4.28;;;;;;;;;;5057045;28;20067;-74
2021/11/05 04:47:02;;;;;;;6.00;4.60;;;;;;;;;;5074363;28;20021;-77
2021/11/05 04:49:28;;;;;;;5.07;4.10;;;;;;;;;;5074477;28;20120;-76
2021/11/05 04:51:54;;;;;;;5.72;4.10;;;;;;;;;;5062915;28;20056;-77
2021/11/05 04:54:20;;;;;;;4.93;3.60;;;;;;;;;;5068233;28;20488;-76
2021/11/05 04:56:47;;;;;;;5.63;4.53;;;;;;;;;;5053658;28;20041;-77
2021/11/05 04:59:16;;;;;;;6.43;4.45;;;;;;;;;;5054250;28;20523;-76
2021/11/05 05:01:42;;;;;;;7.57;4.93;;;;;;;;;;5054243;28;20061;-77
2021/11/05 05:04:08;;;;;;;6.35;4.60;;;;;;;;;;5055230;28;20057;-77
2021/11/05 05:06:34;;;;;;;6.28;4.97;;;;;;;;;;5059361;28;20129;-76
2021/11/05 05:09:00;;;;;;;6.47;4.50;;;;;;;;;;5053835;28;20095;-77
2021/11/05 05:11:26;;;;;;;7.43;4.63;;;;;;;;;;5053667;28;20032;-77
2021/11/05 05:13:52;;;;;;;6.38;4.35;;;;;;;;;;5053605;28;20029;-77
2021/11/05 05:16:18;;;;;;;6.25;4.95;;;;;;;;;;5072742;28;20517;-77
2021/11/05 05:18:46;;;;;;;6.28;4.55;;;;;;;;;;5073809;28;20054;-77
2021/11/05 05:21:12;;;;;;;6.55;5.13;;;;;;;;;;5073646;28;20451;-76
2021/11/05 05:23:38;;;;;;;5.88;5.18;;;;;;;;;;5073888;28;20028;-75
2021/11/05 05:26:04;;;;;;;8.60;5.50;;;;;;;;;;5069080;28;20052;-77
2021/11/05 05:28:31;;;;;;;8.57;5.22;;;;;;;;;;5073503;28;20021;-76
2021/11/05 05:30:58;;;;;;;7.28;5.28;;;;;;;;;;5072071;28;20098;-76
2021/11/05 05:33:24;;;;;;;7.63;5.72;;;;;;;;;;5073637;28;20029;-77
2021/11/05 05:35:50;;;;;;;9.23;5.30;;;;;;;;;;5064793;28;20037;-77
2021/11/05 05:38:16;;;;;;;6.80;5.30;;;;;;;;;;5053481;28;20025;-76
2021/11/05 05:40:42;;;;;;;8.63;6.35;;;;;;;;;;5062356;28;20025;-76
2021/11/05 05:43:08;;;;;;;8.65;5.25;;;;;;;;;;5070699;28;20024;-76
2021/11/05 05:45:34;;;;;;;7.50;6.25;;;;;;;;;;5071648;28;20400;-76
2021/11/05 05:48:00;;;;;;;9.20;5.55;;;;;;;;;;5073102;28;20035;-77
2021/11/05 05:50:26;;;;;;;7.70;6.00;;;;;;;;;;5074066;28;20027;-77
2021/11/05 05:52:52;;;;;;;8.57;6.35;;;;;;;;;;5063833;28;20108;-76
2021/11/05 05:55:18;;;;;;;10.50;6.25;;;;;;;;;;5064359;28;20084;-77
2021/11/05 05:57:44;;;;;;;9.88;7.15;;;;;;;;;;5051230;28;20063;-77
2021/11/05 06:00:14;;;;;;;9.07;6.85;;;;;;;;;;5052576;28;20083;-76
2021/11/05 06:02:40;;;;;;;10.63;7.95;;;;;;;;;;5052813;28;20024;-76
2021/11/05 06:05:07;;;;;;;9.85;7.32;;;;;;;;;;5068028;28;20424;-76
2021/11/05 06:07:33;;;;;;;10.40;7.95;;;;;;;;;;5072727;28;20377;-76
2021/11/05 06:09:59;;;;;;;12.45;7.70;;;;;;;;;;5072623;28;20027;-77
2021/11/05 06:12:25;;;;;;;9.50;7.53;;;;;;;;;;5073083;28;20016;-77
2021/11/05 06:14:51;;;;;;;12.10;8.63;;;;;;;;;;5070339;28;20036;-76
2021/11/05 06:17:17;;;;;;;9.88;8.32;;;;;;;;;;5072240;28;20036;-76
2021/11/05 06:19:43;;;;;;;15.48;9.02;;;;;;;;;;5072691;28;20025;-77
2021/11/05 06:22:10;;;;;;;13.88;8.77;;;;;;;;;;5063347;28;20032;-76
2021/11/05 06:24:36;;;;;;;11.15;9.30;;;;;;;;;;5060597;28;20028;-75
2021/11/05 06:27:02;;;;;;;10.55;8.68;;;;;;;;;;5066661;28;20032;-76
2021/11/05 06:29:28;;;;;;;12.57;8.90;;;;;;;;;;5068328;28;20025;-76
2021/11/05 06:31:54;;;;;;;11.35;8.00;;;;;;;;;;5062199;28;20464;-77
2021/11/05 06:34:20;;;;;;;15.93;9.40;;;;;;;;;;5066423;28;20032;-75
2021/11/05 06:36:46;;;;;;;10.82;8.30;;;;;;;;;;5068012;28;20103;-77
2021/11/05 06:39:12;;;;;;;14.50;8.70;;;;;;;;;;5067515;28;20040;-77
2021/11/05 06:41:38;;;;;;;10.15;8.02;;;;;;;;;;5055604;28;20086;-77
2021/11/05 06:44:04;;;;;;;14.25;8.88;;;;;;;;;;5052021;28;20143;-80
2021/11/05 06:46:30;;;;;;;11.70;9.18;;;;;;;;;;5047018;28;20027;-76
2021/11/05 06:48:56;;;;;;;12.15;8.63;;;;;;;;;;5048491;28;20021;-76
2021/11/05 06:51:22;;;;;;;12.05;8.48;;;;;;;;;;5064055;28;20703;-76
2021/11/05 06:53:48;;;;;;;15.25;8.57;;;;;;;;;;5053985;28;20029;-76
2021/11/05 06:56:14;;;;;;;10.30;8.00;;;;;;;;;;5049395;28;20037;-77
2021/11/05 06:58:41;;;;;;;10.60;8.05;;;;;;;;;;5063539;28;20043;-80
2021/11/05 07:01:07;;;;;;;14.50;9.13;;;;;;;;;;5067940;28;20078;-76
2021/11/05 07:03:34;;;;;;;11.43;8.95;;;;;;;;;;5067740;28;20051;-77
2021/11/05 07:06:00;;;;;;;11.57;8.48;;;;;;;;;;5057866;28;20032;-77
2021/11/05 07:08:26;;;;;;;12.00;8.02;;;;;;;;;;5067549;28;20036;-77
2021/11/05 07:10:53;;;;;;;9.95;7.93;;;;;;;;;;5063872;28;20424;-76
2021/11/05 07:13:19;;;;;;;10.60;7.68;;;;;;;;;;5057401;28;20432;-76
2021/11/05 07:15:45;;;;;;;13.63;8.85;;;;;;;;;;5066892;28;20037;-77
2021/11/05 07:18:11;;;;;;;11.90;8.40;;;;;;;;;;5065816;28;20923;-76
2021/11/05 07:20:37;;;;;;;10.68;8.45;;;;;;;;;;5053528;28;20512;-77
2021/11/05 07:23:05;;;;;;;10.30;8.13;;;;;;;;;;5055975;28;20036;-77
2021/11/05 07:25:32;;;;;;;16.02;8.93;;;;;;;;;;5061534;28;20567;-77
2021/11/05 07:27:58;;;;;;;14.05;8.20;;;;;;;;;;5069843;28;20024;-76
2021/11/05 07:30:24;;;;;;;11.05;8.52;;;;;;;;;;5070703;28;20013;-77
2021/11/05 07:32:51;;;;;;;11.32;7.97;;;;;;;;;;5070151;28;20039;-77
2021/11/05 07:35:19;;;;;;;15.07;8.15;;;;;;;;;;5055128;28;20365;-77
2021/11/05 07:37:46;;;;;;;14.30;7.82;;;;;;;;;;5059576;28;20104;-77
2021/11/05 07:40:12;;;;;;;9.82;7.90;;;;;;;;;;5056664;28;20031;-77
2021/11/05 07:42:39;;;;;;;11.40;7.05;;;;;;;;;;5055472;28;20039;-76
2021/11/05 07:45:06;;;;;;;10.65;7.80;;;;;;;;;;5052730;28;20493;-75
2021/11/05 07:47:32;;;;;;;10.15;8.00;;;;;;;;;;5057771;28;20052;-76
2021/11/05 07:49:58;;;;;;;10.50;7.80;;;8.40;99.90;;;;;;5064214;28;20021;-76
2021/11/05 07:52:24;;;;;;;11.15;7.50;;;7.30;99.90;;;;;;5058108;28;20031;-76
2021/11/05 07:54:50;;;;;;;12.20;7.85;;;7.40;99.90;;;;;;5066846;28;20024;-76
2021/11/05 07:57:16;;;;;;;9.68;7.32;;;7.40;99.90;;;;;;5066554;28;20090;-76
2021/11/05 07:59:42;;;;;;;8.50;7.35;;;7.60;99.90;;;;;;5067919;28;20041;-77
2021/11/05 08:02:08;;;;;;;12.27;7.45;;;7.60;99.90;;;;;;5067163;28;20401;-77
2021/11/05 08:04:34;;;;;;;10.95;7.82;;;7.50;99.90;;;;;;5046743;28;20106;-76
2021/11/05 08:07:00;;;;;;;10.73;7.88;;;7.60;99.90;;;;;;5058650;28;20520;-77
2021/11/05 08:09:25;;;;;;;8.85;7.00;;;7.60;99.90;;;;;;5069771;28;20016;-77
2021/11/05 08:11:51;;;;;;;9.55;7.65;;;7.70;99.90;;;;;;5070621;28;20033;-76
2021/11/05 08:14:17;;;;;;;7.43;6.25;;;8.00;99.90;;;;;;5069226;28;20040;-77
2021/11/05 08:16:42;;;;;;;7.80;6.50;;;7.70;99.90;;;;;;5068021;28;20029;-78
2021/11/05 08:19:08;;;;;;;9.93;7.07;;;7.80;99.90;;;;;;5068956;28;20052;-77
2021/11/05 08:21:34;;;;;;;10.50;6.93;;;7.70;99.90;;;;;;5061688;28;20032;-77
2021/11/05 08:24:00;;;;;;;8.98;6.88;;;7.70;99.90;;;;;;5061707;28;20041;-77
2021/11/05 08:26:27;;;;;;;7.40;6.53;;;7.90;99.90;;;;;;5055239;28;20045;-77
2021/11/05 08:28:53;;;;;;;10.27;7.30;;;8.00;99.90;;;;;;5055609;28;20489;-78
2021/11/05 08:31:19;;;;;;;7.10;5.60;;;;;;;;;;5054593;28;20042;-77
2021/11/05 08:33:46;;;;;;;8.52;6.20;;;;;;;;;;5065404;28;20669;-77
2021/11/05 08:36:13;;;;;;;7.97;6.05;;;;;;;;;;5057855;28;20041;-77
2021/11/05 08:38:39;;;;;;;9.02;6.15;;;;;;;;;;5061774;28;20438;-77
2021/11/05 08:41:05;;;;;;;8.07;6.30;;;;;;;;;;5074854;28;20021;-79
2021/11/05 08:43:32;;;;;;;7.00;5.78;;;;;;;;;;5067743;28;20055;-79
2021/11/05 08:46:03;;;;;;;6.47;5.35;;;;;;;;;;5077177;28;20021;-78
2021/11/05 08:48:30;;;;;;;5.88;4.82;;;;;;;;;;5069128;28;20104;-77
2021/11/05 08:50:57;;;;;;;9.82;5.47;;;;;;;;;;5072148;28;20516;-77
2021/11/05 08:53:23;;;;;;;7.95;5.00;;;;;;;;;;5069340;28;20028;-77
2021/11/05 08:55:50;;;;;;;7.47;5.63;;;;;;;;;;5063500;28;20111;-76
2021/11/05 08:58:16;;;;;;;6.55;5.32;;;;;;;;;;5059638;28;20433;-77
2021/11/05 09:00:42;;;;;;;6.70;5.10;;;;;;;;;;5057602;28;20029;-75
2021/11/05 09:03:08;;;;;;;6.80;5.22;;;;;;;;;;5067240;28;20086;-76
2021/11/05 09:05:35;;;;;;;6.43;4.38;;;8.00;99.90;;;;;;5063729;28;20034;-75
2021/11/05 09:08:02;;;;;;;6.40;5.13;;;9.50;99.90;;;;;;5062556;28;20029;-76
2021/11/05 09:10:29;;;;;;;6.47;4.80;;;9.50;99.90;;;;;;5050233;28;20017;-76
2021/11/05 09:12:55;;;;;;;5.35;4.10;;;9.40;99.90;;;;;;5063297;28;20039;-76
2021/11/05 09:15:25;;;;;;;6.63;3.92;;;;;;;;;;5054921;28;20025;-76
2021/11/05 09:17:53;;;;;;;5.88;3.75;;;;;;;;;;5054566;28;20025;-76
2021/11/05 09:20:19;;;;;;;6.25;4.40;;;;;;;;;;5049385;28;20033;-76
2021/11/05 09:22:49;;;;;;;5.97;4.80;;;;;;;;;;5064650;28;20040;-76
2021/11/05 09:25:14;;;;;;;6.28;4.80;;;;;;;;;;5067246;28;20518;-76
2021/11/05 09:27:43;;;;;;;8.15;4.70;;;;;;;;;;5069045;28;20120;-76
2021/11/05 09:30:10;;;;;;;7.30;5.00;;;;;;;;;;5059722;28;20025;-75
2021/11/05 09:32:36;;;;;;;7.90;4.70;;;;;;;;;;5053740;28;20564;-76
2021/11/05 09:35:03;;;;;;;6.07;5.10;;;;;;;;;;5057810;28;20059;-76
2021/11/05 09:37:29;;;;;;;8.43;4.80;;;;;;;;;;5067653;28;20089;-76
2021/11/05 09:39:55;;;;;;;8.43;4.95;;;;;;;;;;5068673;28;20116;-76
2021/11/05 09:42:22;;;;;;;7.50;5.25;;;;;;;;;;5067991;28;20115;-76
2021/11/05 09:44:48;;;;;;;9.07;5.43;;;10.60;99.90;;;;;;5068829;28;20032;-76
2021/11/05 09:47:14;;;;;;;7.63;5.88;;;9.80;99.90;;;;;;5067836;28;20029;-76
2021/11/05 09:49:41;;;;;;;7.80;6.07;;;9.60;99.90;;;;;;5060880;28;20028;-76
2021/11/05 09:52:07;;;;;;;9.95;6.15;;;9.70;99.90;;;;;;5068434;28;20021;-75
2021/11/05 09:54:35;;;;;;;8.35;6.25;;;9.60;99.90;;;;;;5060532;28;20036;-76
2021/11/05 09:57:04;;;;;;;7.10;5.95;;;9.60;99.90;;;;;;5049127;28;20120;-75
2021/11/05 09:59:30;;;;;;;8.80;6.15;;;9.50;99.90;;;;;;5062468;28;20604;-76
2021/11/05 10:01:56;;;;;;;8.52;6.22;;;9.30;99.90;;;;;;5061997;28;20033;-75
2021/11/05 10:04:21;;;;;;;8.90;5.88;;;9.70;99.90;;;;;;5054197;28;20065;-76
2021/11/05 10:07:09;;;;;;;7.60;5.97;;;10.00;99.90;;;;;;5049589;28;20671;-75
2021/11/05 10:09:39;;;;;;;7.80;6.00;;;9.30;99.90;;;;;;5054213;28;20089;-76
2021/11/05 10:12:19;;;;;;;7.95;6.28;;;9.30;99.90;;;;;;5046846;28;20129;-76
2021/11/05 10:14:53;;;;;;;9.30;6.68;;;9.30;99.90;;;;;;5060474;28;20047;-76
2021/11/05 10:17:19;;;;;;;8.50;6.50;;;9.60;99.90;;;;;;5066806;28;20124;-76
2021/11/05 10:20:02;;;;;;;7.22;5.88;;;9.60;99.90;;;;;;5058253;28;20043;-76
2021/11/05 10:23:16;;;;;;;9.75;7.03;;;9.50;99.90;;;;;;5063527;28;20394;-76
2021/11/05 10:25:40;;;;;;;8.52;6.57;;;9.70;99.90;;;;;;5049361;28;20163;-76
2021/11/05 10:28:10;;;;;;;7.30;5.80;;;9.60;99.90;;;;;;5065133;28;20050;-75
2021/11/05 10:30:58;;;;;;;9.35;6.00;;;9.80;99.90;;;;;;5056713;28;20040;-76
2021/11/05 10:33:29;;;;;;;8.18;6.18;;;10.10;99.90;;;;;;5063319;28;20433;-75
2021/11/05 10:35:55;;;;;;;9.57;6.20;;;;;;;;;;5057883;28;20025;-75
2021/11/05 10:38:22;;;;;;;9.75;6.38;;;;;;;;;;5053566;28;20392;-75
2021/11/05 10:40:52;;;;;;;7.78;5.95;;;;;;;;;;5065096;28;20056;-75
2021/11/05 10:43:37;;;;;;;9.30;6.10;;;;;;;;;;5078680;28;20023;-76
2021/11/05 10:46:04;;;;;;;7.50;6.18;;;;;;;;;;5065892;28;20062;-75
2021/11/05 10:48:31;;;;;;;10.63;6.63;;;;;;;;;;5069555;28;20120;-76
2021/11/05 10:51:03;;;;;;;10.90;6.53;;;;;;;;;;5091789;28;20083;-76
2021/11/05 10:53:32;;;;;;;8.30;6.30;;;;;;;;;;5091146;28;20035;-75
2021/11/05 10:55:58;;;;;;;9.98;6.47;;;;;;;;;;5059091;28;20385;-75
2021/11/05 10:58:29;;;;;;;8.20;5.90;;;;;;;;;;5065117;28;20025;-76
2021/11/05 11:00:59;;;;;;;10.18;6.43;;;;;;;;;;5075479;28;20512;-75
2021/11/05 11:03:30;;;;;;;13.73;6.35;;;;;;;;;;5083915;28;20033;-75
2021/11/05 11:06:15;;;;;;;9.23;6.80;;;;;;;;;;5077437;28;20033;-76
2021/11/05 11:08:51;;;;;;;8.93;6.90;;;;;;;;;;5078697;28;20028;-77
2021/11/05 11:11:28;;;;;;;9.77;6.30;;;;;;;;;;5072557;28;20031;-75
2021/11/05 11:13:56;;;;;;;7.25;6.30;;;;;;;;;;5065507;28;20083;-76
2021/11/05 11:16:24;;;;;;;9.23;6.78;;;;;;;;;;5063736;28;20048;-76
2021/11/05 11:18:51;;;;;;;14.57;9.40;;;;;;;;;;5063566;28;20081;-76
2021/11/05 11:21:17;;;;;;;8.52;6.25;;;;;;;;;;5043972;28;20034;-76
2021/11/05 11:23:43;;;;;;;8.90;6.85;;;;;;;;;;5066766;28;20396;-75
2021/11/05 11:26:10;;;;;;;7.43;6.60;;;;;;;;;;5061910;28;20669;-76
2021/11/05 11:28:36;;;;;;;13.07;7.03;;;;;;;;;;5065776;28;20113;-75
2021/11/05 11:31:02;;;;;;;7.35;5.80;;;;;;;;;;5053589;28;20037;-75
2021/11/05 11:33:28;;;;;;;7.35;6.30;;;;;;;;;;5049306;28;20032;-76
2021/11/05 11:35:55;;;;;;;8.32;6.13;;;;;;;;;;5047658;28;20055;-76
2021/11/05 11:38:21;;;;;;;9.30;5.90;;;;;;;;;;5049447;28;20667;-76
2021/11/05 11:40:48;;;;;;;8.85;5.78;;;;;;;;;;5064514;28;20056;-75
2021/11/05 11:43:18;;;;;;;6.72;5.50;;;;;;;;;;5062610;28;20025;-75
2021/11/05 11:45:48;;;;;;;8.48;5.20;;;;;;;;;;5062398;28;20036;-76
2021/11/05 11:48:33;;;;;;;8.40;6.07;;;;;;;;;;5064925;28;20116;-76
2021/11/05 11:51:15;;;;;;;6.75;5.07;;;;;;;;;;5065696;28;20111;-76
2021/11/05 11:53:41;;;;;;;7.45;6.00;;;;;;;;;;5067516;28;20461;-76
2021/11/05 11:56:07;;;;;;;7.82;5.85;;;;;;;;;;5069500;28;20028;-76
2021/11/05 11:58:33;;;;;;;6.82;5.60;;;;;;;;;;5070009;28;20443;-75
2021/11/05 12:01:19;;;;;;;7.45;5.10;;;;;;;;;;5071252;28;20025;-76
2021/11/05 12:04:03;;;;;;;6.47;5.00;;;;;;;;;;5055032;28;20108;-75
2021/11/05 12:06:49;;;;;;;10.10;6.47;;;;;;;;;;5067908;28;20013;-75
2021/11/05 12:09:21;;;;;;;8.13;5.43;;;;;;;;;;5071224;28;20389;-76
2021/11/05 12:11:47;;;;;;;;;;;;;;;;;;5070830;28;20033;-75
2021/11/05 12:14:15;;;;;;;10.32;5.18;;;;;;;;;;5058014;28;19930;-76
2021/11/05 12:16:42;;;;;;;6.28;5.05;;;;;;;;;;5071073;28;20492;-75
2021/11/05 12:19:11;;;;;;;9.13;5.25;;;;;;;;;;5071214;28;20055;-76
2021/11/05 12:21:38;;;;;;;6.80;5.20;;;;;;;;;;5070650;28;20055;-76
2021/11/05 12:24:16;;;;;;;5.88;4.50;;;;;;;;;;5069357;28;20393;-75
2021/11/05 12:26:50;;;;;;;7.60;5.07;;;;;;;;;;5072918;28;20028;-76
2021/11/05 12:29:36;;;;;;;5.57;4.57;;;;;;;;;;5079067;28;20060;-76
2021/11/05 12:32:23;;;;;;;7.68;5.68;;;;;;;;;;5070925;28;20043;-76
2021/11/05 12:34:53;;;;;;;7.13;4.40;;;;;;;;;;5068730;28;20075;-76
2021/11/05 12:37:34;;;;;;;5.85;4.75;;;;;;;;;;5052364;28;20033;-77
2021/11/05 12:40:19;;;;;;;6.75;4.35;;;;;;;;;;5059057;28;20465;-77
2021/11/05 12:42:45;;;;;;;7.00;4.60;;;;;;;;;;5066201;28;20043;-77
2021/11/05 12:45:11;;;;;;;7.47;4.30;;;;;;;;;;5063412;28;20044;-76
2021/11/05 12:47:56;;;;;;;7.28;4.85;;;;;;;;;;5073051;28;20814;-77
2021/11/05 12:50:22;;;;;;;7.28;4.53;;;;;;;;;;5070307;28;20071;-76
2021/11/05 12:53:08;;;;;;;8.32;4.60;;;;;;;;;;5063666;28;20033;-77
2021/11/05 12:55:38;;;;;;;6.80;4.90;;;;;;;;;;5064871;28;20059;-76
2021/11/05 12:58:06;;;;;;;6.72;5.00;;;;;;;;;;5050066;28;20095;-76
2021/11/05 13:00:34;;;;;;;5.45;4.68;;;;;;;;;;5051391;28;20033;-76
2021/11/05 13:03:01;;;;;;;6.60;5.03;;;;;;;;;;5064440;28;20046;-76
2021/11/05 13:05:28;;;;;;;10.50;5.63;;;;;;;;;;5066597;28;20028;-76
2021/11/05 13:07:54;;;;;;;6.25;4.85;;;;;;;;;;5066734;28;20028;-77
2021/11/05 13:10:24;;;;;;;9.43;5.47;;;;;;;;;;5069459;28;20032;-76
2021/11/05 13:12:51;;;;;;;7.43;5.57;;;;;;;;;;5065165;28;20023;-76
2021/11/05 13:15:17;;;;;;;8.18;5.78;;;;;;;;;;5059378;28;20086;-77
2021/11/05 13:17:43;;;;;;;8.80;6.13;;;;;;;;;;5050290;28;20115;-76
2021/11/05 13:20:11;;;;;;;8.18;5.45;;;;;;;;;;5056293;28;20059;-76
2021/11/05 13:22:39;;;;;;;7.15;5.68;;;;;;;;;;5068388;28;20091;-77
2021/11/05 13:25:14;;;;;;;10.20;6.07;;;;;;;;;;5069858;28;20032;-75
2021/11/05 13:27:40;;;;;;;6.97;5.13;;;;;;;;;;5050592;28;20032;-75
2021/11/05 13:30:07;;;;;;;6.63;4.97;;;;;;;;;;5049993;28;20021;-75
2021/11/05 13:32:33;;;;;;;6.00;4.65;;;;;;;;;;5050310;28;20025;-76
2021/11/05 13:34:59;;;;;;;6.78;4.93;;;;;;;;;;5047828;28;20098;-76
2021/11/05 13:37:26;;;;;;;5.65;4.10;;;;;;;;;;5065033;28;20040;-76
2021/11/05 13:39:52;;;;;;;6.20;4.50;;;;;;;;;;5066369;28;20564;-75
2021/11/05 13:42:20;;;;;;;9.38;5.13;;;;;;;;;;5048579;28;20033;-76
2021/11/05 13:44:47;;;;;;;8.35;4.93;;;;;;;;;;5059077;28;20626;-77
2021/11/05 13:47:15;;;;;;;6.63;4.50;;;;;;;;;;5066302;28;20024;-76
2021/11/05 13:49:41;;;;;;;6.78;4.68;;;;;;;;;;5068910;28;20028;-76
2021/11/05 13:52:08;;;;;;;7.93;4.40;;;;;;;;;;5066591;28;20103;-74
2021/11/05 13:54:41;;;;;;;5.63;4.78;;;;;;;;;;5065136;28;20036;-77
2021/11/05 13:57:07;;;;;;;6.20;4.63;;;;;;;;;;5049394;28;20141;-77
2021/11/05 13:59:34;;;;;;;5.70;4.65;;;;;;;;;;5047507;28;20553;-76
2021/11/05 14:02:03;;;;;;;4.55;3.58;;;;;;;;;;5049424;28;20032;-76
2021/11/05 14:04:29;;;;;;;7.45;3.70;;;;;;;;;;5050900;28;20062;-76
2021/11/05 14:06:57;;;;;;;5.65;4.35;;;;;;;;;;5061750;28;20044;-76
2021/11/05 14:09:24;;;;;;;4.97;3.88;;;;;;;;;;5069335;28;20098;-77
2021/11/05 14:11:50;;;;;;;5.80;4.07;;;;;;;;;;5068818;28;20025;-76
2021/11/05 14:14:33;;;;;;;4.75;4.05;;;;;;;;;;5067429;28;20036;-77
2021/11/05 14:17:01;;;;;;;5.93;4.25;;;;;;;;;;5060704;28;20031;-77
2021/11/05 14:19:28;;;;;;;4.43;3.75;;;;;;;;;;5068420;28;20029;-75
2021/11/05 14:22:02;;;;;;;5.63;4.20;;;;;;;;;;5070697;28;20833;-76
2021/11/05 14:24:33;;;;;;;7.47;4.63;;;;;;;;;;5061644;28;20033;-75
2021/11/05 14:27:05;;;;;;;5.85;4.70;;;;;;;;;;5056727;28;20025;-77
2021/11/05 14:29:35;;;;;;;6.82;4.47;;;;;;;;;;5049026;28;20021;-75
2021/11/05 14:32:05;;;;;;;8.05;5.05;;;;;;;;;;5066976;28;20036;-76
2021/11/05 14:34:49;;;;;;;7.95;6.00;;;;;;;;;;5068460;28;20104;-77